Time;durP1;ratioP1;P1;durP2;ratioP2;P2;SDS_P1;SDS_P2;PMS_P1;PMS_P2;Temp;Humidity;BMP_temperature;BMP_pressure;BME280_temperature;BME280_humidity;BME280_pressure;Samples;Min_cycle;Max_cycle;Signal;HPM_P1;HPM_P2
2023/10/05 00:01:27;;;;;;;231.70;223.03;;;12.20;99.90;;;;;;5113747;28;20940;-77
2023/10/05 00:03:54;;;;;;;212.27;204.17;;;12.30;99.90;;;;;;5113737;28;20444;-77
2023/10/05 00:06:25;;;;;;;208.70;201.07;;;12.30;98.60;;;;;;5113773;28;20444;-77
2023/10/05 00:08:54;;;;;;;194.80;187.37;;;12.30;99.30;;;;;;5114104;28;20517;-77
2023/10/05 00:11:29;;;;;;;173.17;165.73;;;12.40;98.60;;;;;;5113380;28;20476;-77
2023/10/05 00:13:58;;;;;;;154.97;148.10;;;12.30;98.60;;;;;;5113856;28;20536;-77
2023/10/05 00:16:36;;;;;;;144.57;139.27;;;12.40;98.60;;;;;;5113720;28;20452;-77
2023/10/05 00:19:04;;;;;;;137.00;131.97;;;12.40;98.60;;;;;;5113722;28;21014;-77
2023/10/05 00:21:35;;;;;;;134.47;128.57;;;12.40;98.60;;;;;;5113564;28;20876;-77
2023/10/05 00:24:06;;;;;;;128.13;122.70;;;12.50;98.60;;;;;;5113499;28;20448;-77
2023/10/05 00:26:33;;;;;;;116.37;110.50;;;12.50;98.60;;;;;;5113035;28;20484;-77
2023/10/05 00:29:12;;;;;;;94.47;90.13;;;12.60;98.70;;;;;;5113282;28;20505;-77
2023/10/05 00:31:39;;;;;;;89.87;85.90;;;12.60;97.90;;;;;;5113288;28;20468;-77
2023/10/05 00:34:13;;;;;;;79.67;75.83;;;12.60;98.00;;;;;;5113306;28;20938;-77
2023/10/05 00:36:43;;;;;;;88.37;84.17;;;12.60;97.40;;;;;;5113271;28;20452;-77
2023/10/05 00:39:11;;;;;;;85.73;81.63;;;12.60;98.00;;;;;;5113737;28;20822;-77
2023/10/05 00:41:38;;;;;;;77.83;74.30;;;12.60;97.80;;;;;;5113343;28;20543;-77
2023/10/05 00:44:07;;;;;;;75.43;71.33;;;12.70;97.20;;;;;;5112716;28;20928;-77
2023/10/05 00:46:37;;;;;;;64.40;61.33;;;12.70;96.10;;;;;;5113219;28;20483;-77
2023/10/05 00:49:05;;;;;;;66.87;63.67;;;12.70;95.50;;;;;;5113180;28;20825;-77
2023/10/05 00:51:34;;;;;;;60.77;57.57;;;12.70;96.60;;;;;;5112026;28;20537;-77
2023/10/05 00:54:10;;;;;;;58.63;55.47;;;12.70;95.80;;;;;;5113136;28;20534;-77
2023/10/05 00:56:42;;;;;;;57.07;54.37;;;12.70;95.50;;;;;;5113109;28;20846;-77
2023/10/05 00:59:15;;;;;;;53.37;50.03;;;12.70;95.40;;;;;;5112663;28;20936;-77
2023/10/05 01:02:03;;;;;;;51.73;48.83;;;12.70;95.50;;;;;;5112808;28;20445;-77
2023/10/05 01:04:51;;;;;;;56.60;53.97;;;12.70;95.40;;;;;;5113130;28;20452;-77
2023/10/05 01:07:19;;;;;;;51.47;47.90;;;12.70;95.50;;;;;;5113130;28;20441;-77
2023/10/05 01:12:43;;;;;;;60.90;57.90;;;12.70;95.50;;;;;;5112466;28;20475;-77
2023/10/05 01:15:18;;;;;;;66.57;62.57;;;12.70;95.50;;;;;;5112563;28;20993;-77
2023/10/05 01:17:46;;;;;;;80.33;76.30;;;12.60;95.50;;;;;;5112469;28;20448;-77
2023/10/05 01:20:23;;;;;;;68.90;65.17;;;12.60;96.50;;;;;;5112689;28;20444;-77
2023/10/05 01:22:55;;;;;;;74.20;70.77;;;12.60;95.50;;;;;;5112622;28;20619;-77
2023/10/05 01:25:25;;;;;;;73.20;69.73;;;12.70;96.50;;;;;;5112887;28;20480;-77
2023/10/05 01:27:53;;;;;;;63.27;60.00;;;12.70;95.50;;;;;;5112787;28;20449;-77
2023/10/05 01:30:21;;;;;;;61.97;59.17;;;12.80;95.50;;;;;;5112581;28;21022;-77
2023/10/05 01:32:49;;;;;;;61.73;58.33;;;12.80;95.50;;;;;;5112270;28;20468;-77
2023/10/05 01:35:19;;;;;;;68.03;64.07;;;12.70;95.60;;;;;;5112570;28;20452;-77
2023/10/05 01:37:47;;;;;;;72.03;68.93;;;12.70;96.10;;;;;;5112526;28;20928;-77
2023/10/05 01:40:20;;;;;;;64.60;61.70;;;12.70;96.80;;;;;;5112448;28;20535;-77
2023/10/05 01:42:51;;;;;;;80.27;76.67;;;12.70;96.30;;;;;;5112578;28;20469;-77
2023/10/05 01:45:23;;;;;;;76.20;73.00;;;12.70;96.60;;;;;;5112542;28;20790;-77
2023/10/05 01:47:51;;;;;;;76.07;72.07;;;12.60;96.30;;;;;;5112456;28;20504;-77
2023/10/05 01:50:19;;;;;;;76.60;72.80;;;12.60;96.20;;;;;;5112021;28;20529;-77
2023/10/05 01:52:52;;;;;;;81.83;78.30;;;12.70;96.60;;;;;;5111837;28;20498;-77
2023/10/05 01:55:20;;;;;;;73.10;69.90;;;12.70;96.30;;;;;;5112399;28;20491;-77
2023/10/05 01:57:50;;;;;;;83.73;80.17;;;12.60;96.00;;;;;;5112394;28;20451;-77
2023/10/05 02:00:23;;;;;;;72.20;67.80;;;12.60;96.90;;;;;;5112194;28;20444;-77
2023/10/05 02:02:52;;;;;;;74.23;70.90;;;12.60;95.90;;;;;;5113871;28;20930;-77
2023/10/05 02:05:20;;;;;;;84.50;80.40;;;12.60;96.30;;;;;;5116291;28;20444;-77
2023/10/05 02:07:49;;;;;;;89.43;84.90;;;12.60;96.90;;;;;;5115878;28;20950;-77
2023/10/05 02:10:19;;;;;;;97.97;93.70;;;12.50;97.40;;;;;;5116378;28;20852;-77
2023/10/05 02:12:53;;;;;;;104.07;99.90;;;12.50;98.60;;;;;;5116054;28;20576;-77
2023/10/05 02:15:21;;;;;;;107.97;103.13;;;12.40;98.60;;;;;;5116328;28;20531;-77
2023/10/05 02:17:50;;;;;;;119.40;114.33;;;12.40;98.60;;;;;;5115998;28;20455;-77
2023/10/05 02:20:38;;;;;;;113.90;109.50;;;12.50;98.60;;;;;;5116006;28;20474;-77
2023/10/05 02:23:24;;;;;;;116.13;111.43;;;12.50;98.60;;;;;;5115113;28;20448;-77
2023/10/05 02:25:56;;;;;;;123.80;118.53;;;12.50;98.60;;;;;;5115510;28;20480;-77
2023/10/05 02:28:26;;;;;;;143.60;138.17;;;12.50;98.60;;;;;;5116035;28;20876;-77
2023/10/05 02:30:55;;;;;;;143.90;138.60;;;12.50;98.70;;;;;;5115686;28;20532;-77
2023/10/05 02:33:26;;;;;;;144.77;138.67;;;12.40;98.60;;;;;;5115461;28;20539;-77
2023/10/05 02:36:05;;;;;;;139.40;133.90;;;12.40;98.60;;;;;;5114857;28;20451;-77
2023/10/05 02:38:33;;;;;;;123.80;118.90;;;12.40;98.60;;;;;;5115460;28;20454;-77
2023/10/05 02:41:04;;;;;;;137.30;132.30;;;12.40;98.60;;;;;;5115766;28;20444;-77
2023/10/05 02:43:39;;;;;;;128.67;123.47;;;12.40;98.60;;;;;;5115144;28;20437;-77
2023/10/05 02:46:10;;;;;;;109.60;105.20;;;12.50;98.60;;;;;;5115805;28;20816;-77
2023/10/05 02:48:39;;;;;;;93.97;89.57;;;12.60;97.10;;;;;;5115665;28;20505;-77
2023/10/05 02:51:06;;;;;;;102.97;98.63;;;12.60;96.30;;;;;;5115362;28;20451;-77
2023/10/05 02:53:41;;;;;;;98.57;94.47;;;12.50;97.10;;;;;;5115262;28;20492;-77
2023/10/05 02:56:22;;;;;;;91.90;88.30;;;12.50;97.30;;;;;;5115282;28;20663;-77
2023/10/05 02:58:55;;;;;;;93.33;89.40;;;12.50;97.10;;;;;;5115210;28;20789;-77
2023/10/05 03:01:22;;;;;;;88.50;84.43;;;12.50;97.00;;;;;;5115083;28;20455;-77
2023/10/05 03:03:51;;;;;;;95.27;91.53;;;12.50;96.50;;;;;;5114884;28;20570;-77
2023/10/05 03:06:18;;;;;;;87.10;83.53;;;12.50;96.50;;;;;;5115209;28;20445;-77
2023/10/05 03:08:50;;;;;;;97.17;92.87;;;12.50;96.20;;;;;;5115408;28;20448;-77
2023/10/05 03:11:18;;;;;;;96.50;92.30;;;12.50;96.90;;;;;;5114913;28;20482;-77
2023/10/05 03:13:45;;;;;;;84.00;80.40;;;12.50;96.50;;;;;;5114457;28;20483;-77
2023/10/05 03:16:16;;;;;;;74.10;71.10;;;12.50;96.60;;;;;;5115021;28;20532;-77
2023/10/05 03:18:44;;;;;;;82.73;79.13;;;12.50;96.20;;;;;;5115287;28;20441;-77
2023/10/05 03:21:13;;;;;;;97.80;93.10;;;12.50;96.90;;;;;;5114683;28;20448;-77
2023/10/05 03:23:41;;;;;;;85.93;82.30;;;12.40;98.40;;;;;;5114578;28;20873;-77
2023/10/05 03:26:13;;;;;;;93.80;90.13;;;12.40;98.60;;;;;;5114569;28;20797;-77
2023/10/05 03:28:41;;;;;;;110.70;106.00;;;12.40;98.60;;;;;;5114574;28;20445;-77
2023/10/05 03:31:23;;;;;;;117.47;112.97;;;12.30;98.50;;;;;;5114242;28;20452;-77
2023/10/05 03:33:52;;;;;;;129.87;124.97;;;12.30;98.60;;;;;;5114766;28;20469;-77
2023/10/05 03:36:19;;;;;;;126.60;120.93;;;12.30;98.60;;;;;;5114450;28;20455;-77
2023/10/05 03:38:55;;;;;;;129.17;123.80;;;12.40;98.60;;;;;;5114660;27;20799;-77
2023/10/05 03:41:26;;;;;;;135.70;130.50;;;12.30;98.50;;;;;;5114499;28;20456;-77
2023/10/05 03:43:55;;;;;;;131.73;126.73;;;12.30;98.60;;;;;;5114241;28;20936;-77
2023/10/05 03:46:25;;;;;;;145.83;140.20;;;12.30;98.60;;;;;;5114309;28;20864;-77
2023/10/05 03:48:53;;;;;;;180.40;173.53;;;12.30;98.60;;;;;;5114103;28;20813;-77
2023/10/05 03:51:20;;;;;;;157.00;151.10;;;12.30;98.60;;;;;;5114208;28;20456;-77
2023/10/05 03:53:51;;;;;;;136.27;131.10;;;12.40;98.60;;;;;;5113832;28;20814;-77
2023/10/05 03:56:23;;;;;;;129.97;124.63;;;12.40;98.60;;;;;;5114229;28;20448;-77
2023/10/05 03:58:52;;;;;;;128.90;123.50;;;12.50;98.60;;;;;;5113968;28;20791;-77
2023/10/05 04:01:19;;;;;;;131.90;126.93;;;12.50;98.60;;;;;;5113753;28;20986;-77
2023/10/05 04:03:49;;;;;;;115.70;110.80;;;12.40;98.50;;;;;;5113724;28;20494;-77
2023/10/05 04:06:21;;;;;;;106.70;102.63;;;12.50;97.30;;;;;;5113956;28;20474;-77
2023/10/05 04:08:49;;;;;;;122.93;117.97;;;12.50;98.30;;;;;;5114007;28;20535;-77
2023/10/05 04:11:18;;;;;;;124.67;119.87;;;12.50;98.60;;;;;;5113667;28;20450;-77
2023/10/05 04:13:46;;;;;;;111.57;107.17;;;12.50;98.60;;;;;;5113430;28;20475;-77
2023/10/05 04:16:21;;;;;;;105.43;101.47;;;12.50;97.90;;;;;;5113445;28;20457;-77
2023/10/05 04:18:51;;;;;;;112.73;108.17;;;12.50;97.50;;;;;;5113851;28;20870;-77
2023/10/05 04:21:19;;;;;;;117.03;112.63;;;12.50;98.60;;;;;;5113620;28;20531;-77
2023/10/05 04:23:49;;;;;;;127.50;122.77;;;12.40;98.60;;;;;;5113424;28;20452;-77
2023/10/05 04:26:18;;;;;;;139.47;134.00;;;12.40;98.60;;;;;;5113228;28;20449;-77
2023/10/05 04:28:52;;;;;;;136.97;131.07;;;12.40;98.60;;;;;;5113384;28;20451;-77
2023/10/05 04:31:23;;;;;;;148.80;143.13;;;12.30;98.60;;;;;;5113323;28;20965;-77
2023/10/05 04:33:55;;;;;;;164.30;157.57;;;12.30;98.60;;;;;;5113337;28;20468;-77
2023/10/05 04:36:23;;;;;;;176.70;170.50;;;12.20;98.50;;;;;;5113419;28;20451;-78
2023/10/05 04:38:53;;;;;;;195.97;188.90;;;12.20;98.50;;;;;;5113260;28;20532;-77
2023/10/05 04:41:20;;;;;;;203.00;195.70;;;12.20;98.50;;;;;;5113228;28;20873;-77
2023/10/05 04:43:50;;;;;;;219.50;211.20;;;12.10;98.50;;;;;;5112568;28;20444;-78
2023/10/05 04:46:18;;;;;;;229.33;220.23;;;12.10;98.50;;;;;;5113167;28;20451;-77
2023/10/05 04:48:55;;;;;;;234.70;225.50;;;12.00;98.70;;;;;;5112351;28;20794;-77
2023/10/05 04:51:26;;;;;;;247.27;237.17;;;12.00;99.80;;;;;;5112101;28;20467;-77
2023/10/05 04:53:54;;;;;;;272.97;260.97;;;12.00;99.90;;;;;;5112798;28;20472;-78
2023/10/05 04:56:28;;;;;;;277.53;265.40;;;11.90;99.90;;;;;;5112746;28;20844;-77
2023/10/05 04:59:22;;;;;;;295.13;281.97;;;11.90;99.90;;;;;;5112868;28;20436;-77
2023/10/05 05:02:00;;;;;;;293.30;280.40;;;11.90;99.90;;;;;;5112944;28;20471;-77
2023/10/05 05:04:41;;;;;;;296.80;282.83;;;12.00;99.90;;;;;;5113117;28;20459;-77
2023/10/05 05:07:09;;;;;;;298.20;285.17;;;11.90;99.90;;;;;;5112844;28;20463;-77
2023/10/05 05:09:39;;;;;;;320.80;306.23;;;11.90;99.90;;;;;;5112664;28;20475;-77
2023/10/05 05:12:08;;;;;;;317.83;303.17;;;11.90;99.90;;;;;;5112492;28;20880;-77
2023/10/05 05:14:37;;;;;;;322.80;307.67;;;11.80;99.90;;;;;;5112977;28;20472;-77
2023/10/05 05:17:05;;;;;;;333.40;317.70;;;11.80;99.90;;;;;;5112350;28;20453;-77
2023/10/05 05:19:32;;;;;;;360.33;342.27;;;11.80;99.90;;;;;;5112985;28;20959;-77
2023/10/05 05:22:02;;;;;;;332.73;316.80;;;11.90;99.90;;;;;;5112506;28;20962;-78
2023/10/05 05:24:31;;;;;;;326.07;310.93;;;11.90;99.90;;;;;;5113218;28;21007;-77
2023/10/05 05:27:00;;;;;;;323.00;307.10;;;11.90;99.90;;;;;;5112932;28;20487;-77
2023/10/05 05:29:30;;;;;;;332.87;317.60;;;12.00;99.90;;;;;;5112856;28;20448;-77
2023/10/05 05:31:57;;;;;;;311.13;297.10;;;12.00;99.90;;;;;;5112878;28;20455;-77
2023/10/05 05:34:25;;;;;;;312.37;297.33;;;12.00;99.90;;;;;;5112574;28;20508;-77
2023/10/05 05:36:54;;;;;;;311.53;297.53;;;12.00;99.90;;;;;;5112474;28;20456;-77
2023/10/05 05:39:21;;;;;;;299.57;285.10;;;12.10;99.90;;;;;;5116136;28;20811;-77
2023/10/05 05:41:59;;;;;;;280.87;268.47;;;12.10;99.90;;;;;;5116548;28;20601;-77
2023/10/05 05:44:28;;;;;;;284.97;272.53;;;12.10;99.90;;;;;;5116198;28;20951;-77
2023/10/05 05:46:59;;;;;;;294.93;281.40;;;12.10;99.90;;;;;;5113949;28;21003;-77
2023/10/05 05:49:27;;;;;;;279.87;267.37;;;12.20;99.90;;;;;;5114547;28;20445;-77
2023/10/05 05:51:58;;;;;;;275.87;263.23;;;12.20;99.90;;;;;;5116259;28;20461;-77
2023/10/05 05:54:29;;;;;;;272.37;260.10;;;12.20;99.90;;;;;;5116695;28;20472;-77
2023/10/05 05:56:59;;;;;;;255.27;244.50;;;12.30;99.90;;;;;;5116139;28;20448;-77
2023/10/05 05:59:25;;;;;;;242.07;232.20;;;12.40;99.90;;;;;;5116299;28;20991;-77
2023/10/05 06:01:53;;;;;;;240.30;230.67;;;12.40;99.90;;;;;;5116038;28;20445;-77
2023/10/05 06:04:21;;;;;;;231.70;222.63;;;12.50;99.90;;;;;;5116345;28;20437;-77
2023/10/05 06:06:48;;;;;;;219.73;211.10;;;12.50;99.90;;;;;;5116266;28;20448;-77
2023/10/05 06:09:19;;;;;;;216.57;208.13;;;12.60;99.90;;;;;;5116366;28;20896;-77
2023/10/05 06:11:48;;;;;;;184.40;177.50;;;12.60;99.90;;;;;;5116126;28;20476;-77
2023/10/05 06:14:17;;;;;;;178.07;170.97;;;12.70;98.70;;;;;;5115163;28;20460;-77
2023/10/05 06:16:44;;;;;;;178.13;171.10;;;12.70;98.80;;;;;;5115916;28;20448;-77
2023/10/05 06:19:11;;;;;;;169.40;163.13;;;12.70;98.70;;;;;;5115968;28;20483;-77
2023/10/05 06:21:39;;;;;;;164.10;158.00;;;12.70;98.70;;;;;;5116042;28;20476;-77
2023/10/05 06:24:06;;;;;;;178.67;172.17;;;12.80;98.80;;;;;;5116199;28;20497;-77
2023/10/05 06:26:33;;;;;;;158.47;152.30;;;12.80;98.80;;;;;;5115860;28;21012;-77
2023/10/05 06:29:00;;;;;;;132.50;126.73;;;12.90;98.80;;;;;;5115769;28;20444;-77
2023/10/05 06:31:29;;;;;;;129.00;123.60;;;12.90;99.10;;;;;;5115565;28;20561;-77
2023/10/05 06:33:56;;;;;;;131.87;126.50;;;13.00;98.80;;;;;;5115150;28;20472;-78
2023/10/05 06:36:23;;;;;;;135.33;130.30;;;13.10;98.90;;;;;;5115678;28;20551;-77
2023/10/05 06:38:50;;;;;;;135.90;130.60;;;13.10;98.90;;;;;;5114905;28;20522;-77
2023/10/05 06:41:22;;;;;;;122.47;117.60;;;13.20;98.90;;;;;;5115200;28;20979;-77
2023/10/05 06:43:49;;;;;;;104.47;100.17;;;13.20;98.90;;;;;;5115444;28;20441;-77
2023/10/05 06:46:20;;;;;;;114.23;109.73;;;13.20;98.90;;;;;;5115707;28;20444;-77
2023/10/05 06:48:50;;;;;;;119.00;114.50;;;13.30;98.90;;;;;;5114068;28;20478;-77
2023/10/05 06:51:23;;;;;;;92.53;88.30;;;13.30;98.90;;;;;;5114137;28;20458;-77
2023/10/05 06:53:51;;;;;;;47.57;45.10;;;13.40;95.80;;;;;;5115350;28;20214;-77
2023/10/05 06:56:19;;;;;;;48.67;46.40;;;13.50;95.80;;;;;;5115228;28;20449;-77
2023/10/05 06:58:47;;;;;;;48.50;45.40;;;13.60;95.80;;;;;;5115496;28;20441;-77
2023/10/05 07:01:13;;;;;;;36.80;34.70;;;13.60;95.80;;;;;;5115478;28;20738;-77
2023/10/05 07:03:40;;;;;;;32.93;31.03;;;13.70;94.40;;;;;;5115422;28;20844;-77
2023/10/05 07:06:09;;;;;;;33.10;30.97;;;13.70;94.20;;;;;;5115312;28;20448;-77
2023/10/05 07:08:36;;;;;;;38.20;35.60;;;13.80;94.30;;;;;;5115037;28;20480;-77
2023/10/05 07:11:06;;;;;;;31.00;29.00;;;13.80;93.40;;;;;;5115200;28;20481;-77
2023/10/05 07:13:33;;;;;;;23.30;21.80;;;13.90;93.10;;;;;;5114746;28;20441;-77
2023/10/05 07:16:00;;;;;;;21.83;19.70;;;14.00;92.60;;;;;;5114967;28;21015;-78
2023/10/05 07:18:27;;;;;;;20.47;18.50;;;14.00;92.60;;;;;;5115130;28;20476;-77
2023/10/05 07:20:54;;;;;;;23.27;20.83;;;14.00;92.60;;;;;;5114824;28;20483;-74
2023/10/05 07:23:23;;;;;;;19.93;18.20;;;14.10;92.70;;;;;;5114602;28;20451;-77
2023/10/05 07:25:51;;;;;;;15.93;14.57;;;14.10;92.70;;;;;;5114862;28;20452;-74
2023/10/05 07:28:18;;;;;;;15.13;13.53;;;14.20;92.70;;;;;;5114858;28;20506;-74
2023/10/05 07:30:46;;;;;;;20.20;18.50;;;14.20;92.70;;;;;;5114536;27;20455;-77
2023/10/05 07:33:13;;;;;;;16.10;14.70;;;14.20;92.70;;;;;;5114554;28;20449;-78
2023/10/05 07:35:40;;;;;;;12.27;11.17;;;14.40;92.80;;;;;;5114521;28;20921;-78
2023/10/05 07:38:11;;;;;;;13.23;12.03;;;14.40;92.80;;;;;;5114402;28;20454;-78
2023/10/05 07:40:47;;;;;;;13.93;9.90;;;14.50;92.80;;;;;;5113720;28;20445;-77
2023/10/05 07:43:14;;;;;;;11.30;8.30;;;14.60;92.90;;;;;;5114524;28;20537;-74
2023/10/05 07:45:41;;;;;;;11.67;8.00;;;14.60;92.80;;;;;;5114277;28;20493;-74
2023/10/05 07:48:08;;;;;;;10.83;6.90;;;14.70;91.50;;;;;;5112934;28;20449;-74
2023/10/05 07:50:37;;;;;;;8.60;7.67;;;14.80;89.10;;;;;;5114065;27;20478;-74
2023/10/05 07:53:04;;;;;;;9.53;6.77;;;14.90;90.80;;;;;;5113582;28;20462;-74
2023/10/05 07:55:31;;;;;;;12.77;5.70;;;15.00;89.20;;;;;;5113701;28;20514;-74
2023/10/05 07:58:02;;;;;;;13.40;5.40;;;15.10;89.30;;;;;;5113907;28;20813;-74
2023/10/05 08:00:29;;;;;;;16.00;4.80;;;15.20;89.00;;;;;;5113540;28;20542;-74
2023/10/05 08:02:57;;;;;;;12.90;4.40;;;15.30;85.70;;;;;;5113057;28;20908;-74
2023/10/05 08:05:24;;;;;;;9.80;4.80;;;15.40;82.30;;;;;;5113894;28;20447;-74
2023/10/05 08:07:52;;;;;;;8.40;4.10;;;15.50;84.70;;;;;;5113513;28;20990;-74
2023/10/05 08:10:19;;;;;;;16.33;3.70;;;15.60;82.00;;;;;;5113435;28;20828;-74
2023/10/05 08:12:48;;;;;;;10.20;3.80;;;15.80;82.20;;;;;;5113421;28;20450;-74
2023/10/05 08:15:19;;;;;;;11.43;3.30;;;15.70;82.10;;;;;;5113575;28;20481;-74
2023/10/05 08:17:48;;;;;;;7.60;4.20;;;15.80;82.20;;;;;;5113545;28;20454;-74
2023/10/05 08:20:17;;;;;;;13.87;3.93;;;15.90;82.30;;;;;;5113332;28;20509;-74
2023/10/05 08:22:47;;;;;;;10.97;3.50;;;15.90;82.20;;;;;;5113290;28;20445;-74
2023/10/05 08:25:16;;;;;;;14.00;3.40;;;16.10;82.00;;;;;;5113358;28;20527;-74
2023/10/05 08:27:43;;;;;;;10.23;3.80;;;16.20;81.30;;;;;;5113185;28;20453;-74
2023/10/05 08:30:12;;;;;;;11.17;3.77;;;16.20;77.40;;;;;;5112230;28;20502;-74
2023/10/05 08:32:41;;;;;;;11.00;3.70;;;16.30;78.90;;;;;;5112630;28;20452;-74
2023/10/05 08:35:14;;;;;;;7.67;3.07;;;16.40;77.60;;;;;;5113149;28;20480;-73
2023/10/05 08:37:48;;;;;;;13.80;3.50;;;16.50;75.00;;;;;;5112498;28;20448;-74
2023/10/05 08:40:34;;;;;;;12.20;4.07;;;16.70;75.30;;;;;;5111551;28;20447;-74
2023/10/05 08:43:08;;;;;;;11.23;3.80;;;16.90;74.10;;;;;;5111646;27;20670;-74
2023/10/05 08:45:46;;;;;;;13.03;3.60;;;17.00;73.40;;;;;;5112003;28;20443;-74
2023/10/05 08:48:19;;;;;;;12.73;2.60;;;17.20;72.90;;;;;;5112162;28;20454;-75
2023/10/05 08:50:54;;;;;;;12.60;3.58;;;17.20;67.60;;;;;;5111775;28;20450;-74
2023/10/05 08:53:22;;;;;;;14.73;3.80;;;17.10;67.50;;;;;;5113281;28;20275;-73
2023/10/05 08:55:51;;;;;;;13.75;3.63;;;17.30;67.60;;;;;;5112832;28;20492;-74
2023/10/05 08:58:20;;;;;;;7.70;2.73;;;17.30;67.60;;;;;;5113742;28;20197;-74
2023/10/05 09:00:47;;;;;;;13.70;3.27;;;17.20;67.50;;;;;;5113875;28;20455;-72
2023/10/05 09:03:35;;;;;;;9.27;3.27;;;17.20;67.50;;;;;;5113386;28;20865;-72
2023/10/05 09:06:15;;;;;;;8.70;3.33;;;17.10;67.50;;;;;;5113813;28;20454;-72
2023/10/05 09:09:07;;;;;;;11.43;3.20;;;17.10;67.50;;;;;;5113459;28;20545;-72
2023/10/05 09:11:34;;;;;;;11.57;2.77;;;17.20;67.60;;;;;;5112986;28;20543;-72
2023/10/05 09:14:17;;;;;;;18.63;5.33;;;17.30;67.60;;;;;;5112802;28;20511;-72
2023/10/05 09:16:47;;;;;;;9.50;3.00;;;17.40;67.70;;;;;;5113658;28;20523;-72
2023/10/05 09:19:25;;;;;;;14.73;3.27;;;17.40;67.70;;;;;;5113255;28;20444;-72
2023/10/05 09:22:10;;;;;;;13.43;3.93;;;17.40;68.50;;;;;;5113357;28;20448;-72
2023/10/05 09:24:42;;;;;;;9.23;3.50;;;17.40;67.70;;;;;;5113274;28;20913;-72
2023/10/05 09:27:12;;;;;;;9.60;2.80;;;17.20;63.30;;;;;;5113484;28;20520;-72
2023/10/05 09:29:40;;;;;;;14.23;3.17;;;17.50;67.80;;;;;;5113436;28;20764;-72
2023/10/05 09:32:11;;;;;;;8.97;2.93;;;17.50;67.80;;;;;;5113069;28;20446;-72
2023/10/05 09:34:49;;;;;;;12.00;3.20;;;17.40;67.70;;;;;;5113206;28;20885;-72
2023/10/05 09:37:17;;;;;;;11.10;2.70;;;17.40;67.60;;;;;;5113522;28;20819;-72
2023/10/05 09:39:50;;;;;;;14.37;2.77;;;17.40;67.70;;;;;;5113231;28;20544;-72
2023/10/05 09:42:22;;;;;;;12.63;3.10;;;17.40;67.70;;;;;;5113025;28;20459;-72
2023/10/05 09:44:51;;;;;;;12.30;3.67;;;17.50;67.70;;;;;;5112994;28;20451;-72
2023/10/05 09:47:25;;;;;;;14.87;3.03;;;17.50;67.80;;;;;;5112848;28;20950;-72
2023/10/05 09:49:56;;;;;;;13.83;3.50;;;17.60;67.90;;;;;;5112559;28;20633;-72
2023/10/05 09:52:29;;;;;;;16.02;4.10;;;17.60;66.10;;;;;;5111578;28;20443;-72
2023/10/05 09:54:56;;;;;;;11.55;3.10;;;17.40;63.10;;;;;;5112594;28;20791;-72
2023/10/05 09:57:26;;;;;;;13.13;3.43;;;17.40;61.30;;;;;;5112633;28;20198;-72
2023/10/05 09:59:59;;;;;;;8.80;3.00;;;17.50;62.20;;;;;;5112249;28;20477;-76
2023/10/05 10:17:00;;;;;;;10.67;3.57;;;17.30;59.50;;;;;;5109124;27;20440;-75
2023/10/05 10:19:28;;;;;;;16.75;4.40;;;17.30;59.40;;;;;;5109220;28;20443;-75
2023/10/05 10:22:00;;;;;;;15.47;3.77;;;17.40;63.40;;;;;;5110017;28;20240;-75
2023/10/05 10:24:29;;;;;;;11.30;3.40;;;17.30;65.30;;;;;;5110179;28;20451;-75
2023/10/05 10:29:43;;;;;;;15.83;4.00;;;17.50;58.80;;;;;;5089423;27;21088;-75
2023/10/05 10:32:18;;;;;;;11.40;3.47;;;17.50;62.70;;;;;;5089364;28;20482;-75
2023/10/05 10:34:50;;;;;;;27.10;4.20;;;17.60;59.70;;;;;;5089607;28;20939;-75
2023/10/05 11:33:53;;;;;;;9.60;3.97;;;18.10;50.70;;;;;;5129258;27;20273;-72
2023/10/05 11:36:22;;;;;;;15.50;3.00;;;18.40;51.90;;;;;;5130736;27;20194;-72
2023/10/05 11:38:49;;;;;;;10.10;3.60;;;18.80;52.10;;;;;;5129732;27;20967;-72
2023/10/05 11:41:23;;;;;;;13.27;4.20;;;18.80;52.10;;;;;;5130044;28;20205;-72
2023/10/05 11:43:52;;;;;;;13.50;3.43;;;19.20;52.50;;;;;;5126418;27;20449;-72
2023/10/05 11:46:24;;;;;;;12.63;4.00;;;19.50;52.70;;;;;;5110186;28;20448;-72
2023/10/05 11:48:55;;;;;;;14.17;3.50;;;19.80;51.60;;;;;;5110016;28;20454;-72
2023/10/05 11:51:27;;;;;;;8.77;3.37;;;20.40;46.20;;;;;;5109835;28;20437;-73
2023/10/05 11:53:55;;;;;;;11.27;3.00;;;20.70;42.40;;;;;;5109773;28;20480;-72
2023/10/05 11:56:22;;;;;;;14.07;5.50;;;21.20;39.30;;;;;;5110222;28;20453;-72
2023/10/05 11:58:49;;;;;;;10.70;4.27;;;21.50;36.70;;;;;;5110003;28;20455;-73
2023/10/05 12:01:19;;;;;;;10.13;3.37;;;22.00;28.50;;;;;;5109843;28;20821;-72
2023/10/05 12:03:47;;;;;;;12.23;3.60;;;22.80;29.00;;;;;;5109601;28;20483;-72
2023/10/05 12:06:23;;;;;;;12.80;3.60;;;22.10;24.00;;;;;;5109532;28;20513;-72
2023/10/05 12:08:53;;;;;;;12.73;3.08;;;22.10;25.60;;;;;;5107942;28;20899;-72
2023/10/05 12:11:23;;;;;;;9.90;3.40;;;22.20;25.90;;;;;;5108905;28;20268;-72
2023/10/05 12:13:50;;;;;;;10.90;3.93;;;22.30;21.60;;;;;;5109530;28;20440;-72
2023/10/05 12:16:17;;;;;;;9.90;2.80;;;22.30;21.40;;;;;;5108915;28;20448;-72
2023/10/05 12:18:44;;;;;;;14.40;3.40;;;21.20;22.70;;;;;;5109505;28;20448;-73
2023/10/05 12:21:11;;;;;;;10.63;2.90;;;21.50;24.70;;;;;;5109195;28;20450;-73
2023/10/05 12:23:40;;;;;;;8.47;2.40;;;21.80;21.00;;;;;;5109154;28;20480;-73
2023/10/05 12:26:10;;;;;;;13.93;2.43;;;21.80;21.00;;;;;;5109906;28;20445;-73
2023/10/05 12:28:40;;;;;;;11.93;2.67;;;21.40;20.70;;;;;;5109646;28;20448;-73
2023/10/05 12:31:09;;;;;;;16.63;3.40;;;20.90;20.40;;;;;;5109511;28;20453;-73
2023/10/05 12:33:36;;;;;;;9.47;2.50;;;21.40;27.50;;;;;;5109065;28;20448;-73
2023/10/05 12:36:08;;;;;;;10.70;2.80;;;21.90;21.10;;;;;;5109018;28;20478;-74
2023/10/05 12:38:35;;;;;;;19.57;3.77;;;22.10;21.20;;;;;;5109126;28;20455;-74
2023/10/05 12:41:13;;;;;;;11.17;3.57;;;22.10;21.20;;;;;;5108762;28;20447;-74
2023/10/05 12:43:42;;;;;;;8.67;2.77;;;22.30;21.40;;;;;;5103271;28;20445;-77
2023/10/05 12:46:10;;;;;;;10.27;3.17;;;23.00;21.80;;;;;;5095535;28;20456;-77
2023/10/05 12:48:38;;;;;;;12.40;2.50;;;23.20;14.60;;;;;;5094689;28;20453;-74
2023/10/05 12:51:05;;;;;;;11.40;3.57;;;22.20;17.20;;;;;;5094813;28;20457;-74
2023/10/05 12:53:32;;;;;;;12.80;2.90;;;22.20;17.50;;;;;;5095263;28;20453;-73
2023/10/05 12:55:59;;;;;;;10.43;3.07;;;21.80;17.30;;;;;;5095163;28;20449;-73
2023/10/05 12:58:27;;;;;;;18.00;3.60;;;20.90;20.30;;;;;;5095130;28;20453;-73
2023/10/05 13:00:54;;;;;;;10.10;2.87;;;20.30;20.00;;;;;;5094803;28;20451;-73
2023/10/05 13:03:24;;;;;;;9.77;2.40;;;20.20;27.00;;;;;;5094451;28;20473;-73
2023/10/05 13:05:51;;;;;;;16.80;3.03;;;20.90;20.30;;;;;;5094615;28;20532;-74
2023/10/05 13:08:20;;;;;;;7.10;2.97;;;21.60;17.90;;;;;;5093685;28;20850;-74
2023/10/05 13:10:48;;;;;;;9.53;2.40;;;21.60;17.30;;;;;;5094044;28;20478;-73
2023/10/05 13:13:18;;;;;;;8.00;2.07;;;21.40;17.70;;;;;;5093749;28;20445;-74
2023/10/05 13:15:46;;;;;;;15.50;2.97;;;21.20;20.20;;;;;;5094273;28;20499;-73
2023/10/05 13:18:17;;;;;;;10.97;2.00;;;20.60;20.10;;;;;;5094834;28;20453;-73
2023/10/05 13:20:47;;;;;;;9.30;2.60;;;20.10;22.90;;;;;;5094511;28;20450;-73
2023/10/05 13:23:18;;;;;;;8.43;2.63;;;19.90;23.30;;;;;;5093780;28;20477;-73
2023/10/05 13:25:47;;;;;;;7.90;2.00;;;19.80;23.90;;;;;;5094080;28;20453;-73
2023/10/05 13:28:16;;;;;;;11.63;2.43;;;19.60;26.80;;;;;;5093945;28;20499;-73
2023/10/05 13:30:46;;;;;;;7.40;2.37;;;19.60;24.50;;;;;;5094218;28;20453;-73
2023/10/05 13:33:17;;;;;;;7.70;2.40;;;20.10;27.10;;;;;;5093798;28;20544;-73
2023/10/05 13:35:47;;;;;;;8.30;2.50;;;19.90;26.80;;;;;;5094372;28;20541;-73
2023/10/05 13:38:16;;;;;;;10.90;2.43;;;19.80;22.60;;;;;;5093741;28;20544;-73
2023/10/05 13:40:57;;;;;;;11.97;2.80;;;19.90;26.40;;;;;;5093412;28;20486;-73
2023/10/05 13:43:26;;;;;;;10.10;3.17;;;20.00;27.00;;;;;;5093516;28;20469;-73
2023/10/05 13:45:54;;;;;;;9.50;3.30;;;20.00;27.00;;;;;;5094001;28;20945;-73
2023/10/05 13:48:23;;;;;;;8.70;2.20;;;20.00;27.00;;;;;;5094232;28;20452;-73
2023/10/05 13:50:50;;;;;;;9.33;2.37;;;19.50;23.20;;;;;;5094082;28;20869;-73
2023/10/05 13:53:17;;;;;;;7.00;2.17;;;19.60;26.70;;;;;;5094262;28;20556;-73
2023/10/05 13:55:45;;;;;;;9.70;3.30;;;19.50;26.70;;;;;;5093231;28;20528;-73
2023/10/05 13:58:14;;;;;;;8.70;2.20;;;19.30;26.50;;;;;;5094205;28;20615;-73